Aberdovey, United Kingdom
Current Conditions -  °F | °C
As of 9:50 PM on Wednesday 22 Oct 2014 (Local Time) from EGOV Reporting Station
Broken Clouds Broken Clouds  
Wind Chill: 57°   Ceiling: 3500
Heat Index: 57°   Visibility: 6mi
Dew Point: 52°   Wind: 21mph
Humidity: 82%   Direction: 220°SW
Pressure: 30.09"   Gusts: NA
Location:  52.55°N, 4.05°W
Report Text: EGOV 222050Z 22018KT 9999 FEW020 BKN035 14/11 Q1019 BLU NOSIG
Loading
Personal Weather Stations






























Interactive Weather Map New forecast layout! Learn more

10-Day Weather Forecast

Advertisements
Track Severe Weather on mobile